Time;durP1;ratioP1;P1;durP2;ratioP2;P2;SDS_P1;SDS_P2;PMS_P1;PMS_P2;Temp;Humidity;BMP_temperature;BMP_pressure;BME280_temperature;BME280_humidity;BME280_pressure;Samples;Min_cycle;Max_cycle;Signal;HPM_P1;HPM_P2
2023/05/19 00:02:08;;;;;;;16.27;12.48;;;;;;;-140.66;100.00;55571.53;5095915;28;20028;-78
2023/05/19 00:04:53;;;;;;;17.92;12.35;;;;;;;-140.66;100.00;55571.53;5096153;28;20027;-78
2023/05/19 00:07:42;;;;;;;20.30;13.10;;;;;;;-140.66;100.00;55571.53;5080762;28;20086;-78
2023/05/19 00:10:30;;;;;;;20.85;12.00;;;;;;;-140.66;100.00;55571.53;5095176;28;20364;-78
2023/05/19 00:13:16;;;;;;;17.13;11.18;;;;;;;-140.66;100.00;55571.53;5081858;28;20087;-78
2023/05/19 00:16:02;;;;;;;21.15;12.70;;;;;;;-140.66;100.00;55571.53;5094569;28;20078;-78
2023/05/19 00:18:48;;;;;;;21.67;13.25;;;;;;;-140.66;100.00;55571.53;5081001;28;20441;-78
2023/05/19 00:21:36;;;;;;;18.42;12.45;;;;;;;-140.66;100.00;55571.53;5093680;28;20458;-77
2023/05/19 00:24:22;;;;;;;18.77;12.43;;;;;;;-140.66;100.00;55571.53;5079872;28;20036;-78
2023/05/19 00:27:08;;;;;;;20.08;12.07;;;;;;;-140.66;100.00;55571.53;5095317;28;20020;-78
2023/05/19 00:29:54;;;;;;;15.45;11.85;;;;;;;-140.66;100.00;55571.53;5081746;28;20400;-79
2023/05/19 00:32:39;;;;;;;20.55;12.88;;;;;;;-140.66;100.00;55571.53;5095116;28;20042;-78
2023/05/19 00:35:25;;;;;;;18.05;12.00;;;;;;;-140.66;100.00;55571.53;5067464;28;20023;-78
2023/05/19 00:38:11;;;;;;;16.98;12.57;;;;;;;-140.66;100.00;55571.53;5095075;28;20039;-78
2023/05/19 00:40:57;;;;;;;19.10;12.93;;;;;;;-140.66;100.00;55571.53;5079081;28;20173;-78
2023/05/19 00:43:43;;;;;;;17.20;12.15;;;;;;;-140.66;100.00;55571.53;5095021;28;20109;-78
2023/05/19 00:46:29;;;;;;;16.90;12.40;;;;;;;-140.66;100.00;55571.53;5079289;28;20106;-78
2023/05/19 00:49:15;;;;;;;19.40;12.25;;;;;;;-140.66;100.00;55571.53;5093683;28;20348;-78
2023/05/19 00:52:01;;;;;;;17.90;12.93;;;;;;;-140.66;100.00;55571.53;5083892;28;20024;-79
2023/05/19 00:54:50;;;;;;;18.27;12.32;;;;;;;-140.66;100.00;55571.53;5098541;28;20060;-79
2023/05/19 00:57:37;;;;;;;19.02;12.90;;;;;;;-140.66;100.00;55571.53;5082990;28;20119;-78
2023/05/19 01:00:23;;;;;;;19.63;12.80;;;;;;;-140.66;100.00;55571.53;5097359;28;20368;-79
2023/05/19 01:03:12;;;;;;;17.45;12.52;;;;;;;-140.66;100.00;55571.53;5101916;28;20175;-79
2023/05/19 01:06:00;;;;;;;21.73;13.07;;;;;;;-140.66;100.00;55571.53;5099053;28;20016;-78
2023/05/19 01:08:46;;;;;;;15.70;12.27;;;;;;;-140.66;100.00;55571.53;5099161;28;20036;-78
2023/05/19 01:11:32;;;;;;;19.88;12.25;;;;;;;-140.66;100.00;55571.53;5098697;28;20109;-79
2023/05/19 01:14:19;;;;;;;19.92;12.57;;;;;;;-140.66;100.00;55571.53;5097367;28;20028;-78
2023/05/19 01:17:29;;;;;;;20.27;13.35;;;;;;;-140.66;100.00;55571.53;5086035;28;20035;-77
2023/05/19 01:20:41;;;;;;;19.90;12.77;;;;;;;-140.66;100.00;55571.53;5084455;28;20035;-78
2023/05/19 01:23:39;;;;;;;17.02;12.52;;;;;;;-140.66;100.00;55571.53;5057724;28;20491;-78
2023/05/19 01:26:56;;;;;;;22.60;13.10;;;;;;;-140.66;100.00;55571.53;5086197;28;20024;-79
2023/05/19 01:30:13;;;;;;;18.42;12.90;;;;;;;-140.66;100.00;55571.53;5098464;28;20044;-78
2023/05/19 01:33:03;;;;;;;18.08;12.02;;;;;;;-140.66;100.00;55571.53;5097691;28;20460;-78
2023/05/19 01:35:50;;;;;;;17.17;12.50;;;;;;;-140.66;100.00;55571.53;5082878;28;20059;-78
2023/05/19 01:38:38;;;;;;;23.50;12.75;;;;;;;-140.66;100.00;55571.53;5082471;28;20043;-78
2023/05/19 01:41:25;;;;;;;17.20;12.02;;;;;;;-140.66;100.00;55571.53;5082995;28;20024;-78
2023/05/19 01:44:11;;;;;;;18.90;12.25;;;;;;;-140.66;100.00;55571.53;5096462;28;20120;-78
2023/05/19 01:46:57;;;;;;;22.42;13.82;;;;;;;-140.66;100.00;55571.53;5083737;28;20433;-78
2023/05/19 01:49:43;;;;;;;20.83;12.95;;;;;;;-140.66;100.00;55571.53;5097122;28;20036;-78
2023/05/19 01:52:29;;;;;;;18.80;12.77;;;;;;;-140.66;100.00;55571.53;5083838;28;20040;-77
2023/05/19 01:55:15;;;;;;;16.48;12.68;;;;;;;-140.66;100.00;55571.53;5097784;28;20020;-78
2023/05/19 01:58:30;;;;;;;17.27;12.27;;;;;;;-140.66;100.00;55571.53;5082875;28;20064;-78
2023/05/19 02:02:00;;;;;;;21.30;12.50;;;;;;;-140.66;100.00;55571.53;5097871;28;20466;-77
2023/05/19 02:04:54;;;;;;;21.80;13.13;;;;;;;-140.66;100.00;55571.53;4976604;28;20478;-77
2023/05/19 02:07:47;;;;;;;21.90;12.82;;;;;;;-140.66;100.00;55571.53;4963007;28;20426;-78
2023/05/19 02:10:39;;;;;;;22.13;13.40;;;;;;;-140.66;100.00;55571.53;5094543;28;20048;-78
2023/05/19 02:13:33;;;;;;;19.80;13.40;;;;;;;-140.66;100.00;55571.53;5080660;28;20182;-78
2023/05/19 02:16:24;;;;;;;20.95;12.85;;;;;;;-140.66;100.00;55571.53;5096580;28;20024;-78
2023/05/19 02:19:23;;;;;;;21.25;12.40;;;;;;;-140.66;100.00;55571.53;5096786;28;20113;-78
2023/05/19 02:22:09;;;;;;;17.13;12.95;;;;;;;-140.66;100.00;55571.53;5095454;28;20452;-78
2023/05/19 02:24:56;;;;;;;18.70;12.60;;;;;;;-140.66;100.00;55571.53;5095246;28;20116;-78
2023/05/19 02:27:42;;;;;;;20.58;12.55;;;;;;;-140.66;100.00;55571.53;5094575;28;20040;-78
2023/05/19 02:30:27;;;;;;;22.67;12.57;;;;;;;-140.66;100.00;55571.53;5096549;28;20028;-78
2023/05/19 02:33:13;;;;;;;17.85;12.07;;;;;;;-140.66;100.00;55571.53;5095991;28;20038;-78
2023/05/19 02:35:59;;;;;;;24.35;12.25;;;;;;;-140.66;100.00;55571.53;5095658;28;20062;-78
2023/05/19 02:38:46;;;;;;;20.58;13.05;;;;;;;-140.66;100.00;55571.53;5095828;28;20385;-79
2023/05/19 02:41:32;;;;;;;22.15;13.05;;;;;;;-140.66;100.00;55571.53;5082094;28;20031;-78
2023/05/19 02:44:17;;;;;;;21.58;12.63;;;;;;;-140.66;100.00;55571.53;5094836;28;20020;-78
2023/05/19 02:47:03;;;;;;;24.58;12.85;;;;;;;-140.66;100.00;55571.53;5095825;28;20039;-78
2023/05/19 02:49:49;;;;;;;21.92;13.45;;;;;;;-140.66;100.00;55571.53;5079844;28;20028;-79
2023/05/19 02:52:35;;;;;;;19.92;12.82;;;;;;;-140.66;100.00;55571.53;5081544;28;20024;-79
2023/05/19 02:55:21;;;;;;;20.40;13.80;;;;;;;-140.66;100.00;55571.53;5095134;28;20093;-74
2023/05/19 02:58:06;;;;;;;29.20;14.27;;;;;;;-140.66;100.00;55571.53;5095770;28;20016;-76
2023/05/19 03:00:52;;;;;;;21.10;14.13;;;;;;;-140.66;100.00;55571.53;5080579;28;20107;-75
2023/05/19 03:03:38;;;;;;;21.20;13.68;;;;;;;-140.66;100.00;55571.53;5095635;28;20028;-75
2023/05/19 03:06:23;;;;;;;16.60;13.32;;;;;;;-140.66;100.00;55571.53;5094083;28;20466;-75
2023/05/19 03:09:09;;;;;;;19.77;13.00;;;;;;;-140.66;100.00;55571.53;5081732;28;20082;-76
2023/05/19 03:11:55;;;;;;;17.83;13.75;;;;;;;-140.66;100.00;55571.53;5080896;28;20110;-76
2023/05/19 03:14:41;;;;;;;22.38;14.50;;;;;;;-140.66;100.00;55571.53;5079816;28;20085;-75
2023/05/19 03:17:32;;;;;;;19.13;13.50;;;;;;;-140.66;100.00;55571.53;5081011;28;20024;-75
2023/05/19 03:20:18;;;;;;;23.15;13.77;;;;;;;-140.66;100.00;55571.53;5095010;28;20027;-76
2023/05/19 03:23:03;;;;;;;18.98;13.60;;;;;;;-140.66;100.00;55571.53;5078905;28;20036;-75
2023/05/19 03:25:49;;;;;;;25.63;14.10;;;;;;;-140.66;100.00;55571.53;5095136;28;20024;-75
2023/05/19 03:28:35;;;;;;;20.80;14.27;;;;;;;-140.66;100.00;55571.53;5078700;28;20059;-75
2023/05/19 03:31:21;;;;;;;21.92;14.63;;;;;;;-140.66;100.00;55571.53;5080180;28;20112;-75
2023/05/19 03:34:06;;;;;;;20.33;14.15;;;;;;;-140.66;100.00;55571.53;5095065;28;20468;-75
2023/05/19 03:36:52;;;;;;;25.52;15.98;;;;;;;-140.66;100.00;55571.53;5095356;28;20051;-75
2023/05/19 03:39:38;;;;;;;23.48;14.80;;;;;;;-140.66;100.00;55571.53;5079251;28;20020;-75
2023/05/19 03:42:24;;;;;;;24.40;15.05;;;;;;;-140.66;100.00;55571.53;5079550;28;20028;-76
2023/05/19 03:45:10;;;;;;;22.42;14.50;;;;;;;-140.66;100.00;55571.53;5080588;28;20028;-75
2023/05/19 03:47:55;;;;;;;20.77;13.90;;;;;;;-140.66;100.00;55571.53;5094348;28;20089;-75
2023/05/19 03:50:43;;;;;;;26.33;14.93;;;;;;;-140.66;100.00;55571.53;5095032;28;20367;-75
2023/05/19 03:53:29;;;;;;;23.70;14.30;;;;;;;-140.66;100.00;55571.53;5094848;28;20043;-76
2023/05/19 03:56:16;;;;;;;22.10;14.25;;;;;;;-140.66;100.00;55571.53;5080997;28;20028;-75
2023/05/19 03:59:04;;;;;;;18.73;13.32;;;;;;;-140.66;100.00;55571.53;5094490;28;20425;-76
2023/05/19 04:01:51;;;;;;;19.50;13.68;;;;;;;-140.66;100.00;55571.53;5079257;28;20031;-75
2023/05/19 04:04:37;;;;;;;22.42;13.52;;;;;;;-140.66;100.00;55571.53;5079686;28;20045;-76
2023/05/19 04:07:22;;;;;;;17.30;12.90;;;;;;;-140.66;100.00;55571.53;5095155;28;20032;-76
2023/05/19 04:10:09;;;;;;;24.45;13.95;;;;;;;-140.66;100.00;55571.53;5079251;28;20115;-75
2023/05/19 04:12:54;;;;;;;19.08;13.10;;;;;;;-140.66;100.00;55571.53;5094515;28;20024;-75
2023/05/19 04:15:40;;;;;;;22.60;13.68;;;;;;;-140.66;100.00;55571.53;5078879;28;20097;-76
2023/05/19 04:18:26;;;;;;;24.20;14.75;;;;;;;-140.66;100.00;55571.53;5079229;28;20028;-75
2023/05/19 04:21:12;;;;;;;23.23;14.15;;;;;;;-140.66;100.00;55571.53;5097976;28;20035;-73
2023/05/19 04:23:58;;;;;;;25.35;14.05;;;;;;;-140.66;100.00;55571.53;5099800;28;20064;-75
2023/05/19 04:26:44;;;;;;;21.58;13.50;;;;;;;-140.66;100.00;55571.53;5090600;28;20031;-75
2023/05/19 04:29:31;;;;;;;30.42;14.70;;;;;;;-140.66;100.00;55571.53;5090570;28;20052;-76
2023/05/19 04:32:17;;;;;;;25.48;13.88;;;;;;;-140.66;100.00;55571.53;5111293;28;20040;-76
2023/05/19 04:35:03;;;;;;;28.05;14.73;;;;;;;-140.66;100.00;55571.53;5086720;28;20037;-76
2023/05/19 04:37:51;;;;;;;26.90;14.63;;;;;;;-140.66;100.00;55571.53;5097686;28;20341;-76
2023/05/19 04:40:39;;;;;;;26.20;14.13;;;;;;;-140.66;100.00;55571.53;5083018;28;20048;-75
2023/05/19 04:43:26;;;;;;;20.92;13.60;;;;;;;-140.66;100.00;55571.53;5098523;28;20028;-75
2023/05/19 04:46:12;;;;;;;25.40;13.65;;;;;;;-140.66;100.00;55571.53;5097742;28;20024;-75
2023/05/19 04:49:00;;;;;;;25.52;14.38;;;;;;;-140.66;100.00;55571.53;5098715;28;20452;-76
2023/05/19 04:51:48;;;;;;;25.88;13.90;;;;;;;-140.66;100.00;55571.53;5091300;28;20058;-76
2023/05/19 04:54:34;;;;;;;19.15;13.85;;;;;;;-140.66;100.00;55571.53;5089560;28;20123;-75
2023/05/19 04:57:20;;;;;;;22.02;14.02;;;;;;;-140.66;100.00;55571.53;5098208;28;20020;-76
2023/05/19 05:00:08;;;;;;;25.88;13.82;;;;;;;-140.66;100.00;55571.53;5099535;28;20027;-76
2023/05/19 05:02:56;;;;;;;18.23;13.23;;;;;;;-140.66;100.00;55571.53;5085818;28;20110;-76
2023/05/19 05:05:42;;;;;;;22.27;15.38;;;;;;;-140.66;100.00;55571.53;5097925;28;20024;-76
2023/05/19 05:08:29;;;;;;;22.45;14.75;;;;;;;-140.66;100.00;55571.53;5086711;28;20440;-75
2023/05/19 05:11:15;;;;;;;22.70;13.00;;;;;;;-140.66;100.00;55571.53;5088689;28;20059;-76
2023/05/19 05:14:01;;;;;;;20.58;14.02;;;;;;;-140.66;100.00;55571.53;5098089;28;20040;-77
2023/05/19 05:16:48;;;;;;;29.13;14.40;;;;;;;-140.66;100.00;55571.53;5083435;28;20031;-76
2023/05/19 05:19:34;;;;;;;21.02;14.45;;;;;;;-140.66;100.00;55571.53;5098006;28;20024;-76
2023/05/19 05:22:20;;;;;;;19.70;14.60;;;;;;;-140.66;100.00;55571.53;5083131;28;20024;-76
2023/05/19 05:25:07;;;;;;;17.85;13.05;;;;;;;-140.66;100.00;55571.53;5096831;28;20024;-76
2023/05/19 05:27:53;;;;;;;19.52;13.32;;;;;;;-140.66;100.00;55571.53;5096707;28;20490;-76
2023/05/19 05:30:40;;;;;;;19.88;14.05;;;;;;;-140.66;100.00;55571.53;5097225;28;20110;-76
2023/05/19 05:33:26;;;;;;;20.50;13.20;;;;;;;-140.66;100.00;55571.53;5083321;28;20024;-77
2023/05/19 05:36:12;;;;;;;20.58;14.20;;;;;;;-140.66;100.00;55571.53;5082279;28;20020;-77
2023/05/19 05:38:58;;;;;;;18.40;13.35;;;;;;;-140.66;100.00;55571.53;5095655;28;20028;-77
2023/05/19 05:41:44;;;;;;;19.02;14.18;;;;;;;-140.66;100.00;55571.53;5095754;28;20411;-75
2023/05/19 05:44:29;;;;;;;16.85;13.18;;;;;;;-140.66;100.00;55571.53;5097179;28;20090;-76
2023/05/19 05:47:15;;;;;;;21.05;13.63;;;;;;;-140.66;100.00;55571.53;5082348;28;20121;-75
2023/05/19 05:50:02;;;;;;;21.50;13.80;;;;;;;-140.66;100.00;55571.53;5097109;28;20096;-76
2023/05/19 05:52:49;;;;;;;20.33;13.68;;;;;;;-140.66;100.00;55571.53;5095659;28;20067;-76
2023/05/19 05:55:35;;;;;;;24.75;14.23;;;;;;;-140.66;100.00;55571.53;5097171;28;20108;-76
2023/05/19 05:58:21;;;;;;;22.58;14.20;;;;;;;-140.66;100.00;55571.53;5097703;28;20024;-76
2023/05/19 06:01:10;;;;;;;19.52;13.77;;;;;;;-140.66;100.00;55571.53;5096529;28;20035;-77
2023/05/19 06:03:56;;;;;;;25.08;14.38;;;;;;;-140.66;100.00;55571.53;5081077;28;20089;-76
2023/05/19 06:06:42;;;;;;;25.17;14.48;;;;;;;-140.66;100.00;55571.53;5081428;28;20032;-76
2023/05/19 06:09:29;;;;;;;18.75;14.13;;;;;;;-140.66;100.00;55571.53;5082146;28;20078;-76
2023/05/19 06:12:14;;;;;;;20.67;14.55;;;;;;;-140.66;100.00;55571.53;5095915;28;20032;-76
2023/05/19 06:15:07;;;;;;;22.35;14.88;;;;;;;-140.66;100.00;55571.53;5083078;28;20032;-77
2023/05/19 06:17:53;;;;;;;18.70;13.70;;;;;;;-140.66;100.00;55571.53;5082365;28;20031;-77
2023/05/19 06:20:39;;;;;;;18.83;14.10;;;;;;;-140.66;100.00;55571.53;5082763;28;20523;-76
2023/05/19 06:23:25;;;;;;;20.27;14.98;;;;;;;-140.66;100.00;55571.53;5080638;28;20341;-76
2023/05/19 06:26:11;;;;;;;26.10;15.68;;;;;;;-140.66;100.00;55571.53;5095580;28;20028;-77
2023/05/19 06:28:57;;;;;;;19.85;14.25;;;;;;;-140.66;100.00;55571.53;5095090;28;20048;-76
2023/05/19 06:31:43;;;;;;;22.60;14.65;;;;;;;-140.66;100.00;55571.53;5082517;28;20043;-76
2023/05/19 06:34:28;;;;;;;29.80;16.60;;;;;;;-140.66;100.00;55571.53;5081466;28;20044;-77
2023/05/19 06:37:18;;;;;;;26.80;15.05;;;;;;;-140.66;100.00;55571.53;5081115;28;20101;-76
2023/05/19 06:40:04;;;;;;;24.33;15.90;;;;;;;-140.66;100.00;55571.53;5094989;28;20368;-76
2023/05/19 06:42:50;;;;;;;22.27;15.30;;;;;;;-140.66;100.00;55571.53;5082059;28;20075;-77
2023/05/19 06:45:36;;;;;;;27.80;16.23;;;;;;;-140.66;100.00;55571.53;5094899;28;20439;-77
2023/05/19 06:48:21;;;;;;;24.90;15.57;;;;;;;-140.66;100.00;55571.53;5094342;28;20046;-77
2023/05/19 06:51:09;;;;;;;21.38;14.65;;;;;;;-140.66;100.00;55571.53;5094580;28;20019;-74
2023/05/19 06:53:54;;;;;;;41.40;17.58;;;;;;;-140.66;100.00;55571.53;5094800;28;20032;-76
2023/05/19 06:56:40;;;;;;;23.48;15.63;;;;;;;-140.66;100.00;55571.53;5080347;28;20036;-76
2023/05/19 06:59:26;;;;;;;20.92;15.40;;;;;;;-140.66;100.00;55571.53;5094511;28;20036;-76
2023/05/19 07:02:12;;;;;;;21.27;15.48;;;;;;;-140.66;100.00;55571.53;5079362;28;20359;-77
2023/05/19 07:04:58;;;;;;;23.88;15.57;;;;;;;-140.66;100.00;55571.53;5096066;28;20056;-76
2023/05/19 07:07:43;;;;;;;23.38;15.88;;;;;;;-140.66;100.00;55571.53;5094924;28;20341;-76
2023/05/19 07:10:29;;;;;;;25.02;14.85;;;;;;;-140.66;100.00;55571.53;5094395;28;20028;-76
2023/05/19 07:13:15;;;;;;;29.98;15.95;;;;;;;-140.66;100.00;55571.53;5094752;28;20031;-76
2023/05/19 07:16:01;;;;;;;23.63;16.60;;;;;;;-140.66;100.00;55571.53;5095634;28;20111;-77
2023/05/19 07:18:47;;;;;;;25.58;17.15;;;;;;;-140.66;100.00;55571.53;5093780;28;20111;-76
2023/05/19 07:21:32;;;;;;;24.70;16.13;;;;;;;-140.66;100.00;55571.53;5094759;28;20042;-76
2023/05/19 07:24:20;;;;;;;26.15;17.23;;;;;;;-140.66;100.00;55571.53;5095168;28;20129;-77
2023/05/19 07:27:06;;;;;;;23.55;16.77;;;;;;;-140.66;100.00;55571.53;5093930;28;20027;-77
2023/05/19 07:29:52;;;;;;;27.65;16.60;;;;;;;-140.66;100.00;55571.53;5081563;28;20028;-76
2023/05/19 07:32:38;;;;;;;32.42;17.38;;;;;;;-140.66;100.00;55571.53;5094927;28;20024;-77
2023/05/19 07:35:25;;;;;;;27.73;16.63;;;;;;;-140.66;100.00;55571.53;5095794;28;20024;-77
2023/05/19 07:38:11;;;;;;;26.90;15.80;;;;;;;-140.66;100.00;55571.53;5102954;28;20036;-77
2023/05/19 07:40:57;;;;;;;25.20;16.52;;;;;;;-140.66;100.00;55571.53;5098107;28;20028;-77
2023/05/19 07:43:42;;;;;;;22.30;16.15;;;;;;;-140.66;100.00;55571.53;5093766;28;20070;-77
2023/05/19 07:46:28;;;;;;;24.92;15.30;;;;;;;-140.66;100.00;55571.53;5094626;28;20120;-77
2023/05/19 07:49:14;;;;;;;20.15;14.93;;;;;;;-140.66;100.00;55571.53;5093491;28;20020;-76
2023/05/19 07:52:00;;;;;;;24.17;16.05;;;;;;;-140.66;100.00;55571.53;5094814;28;20110;-76
2023/05/19 07:54:45;;;;;;;28.33;15.48;;;;;;;-140.66;100.00;55571.53;5080849;28;20038;-76
2023/05/19 07:57:31;;;;;;;27.40;16.33;;;;;;;-140.66;100.00;55571.53;5094551;28;20024;-77
2023/05/19 08:00:17;;;;;;;33.95;17.02;;;;;;;-140.66;100.00;55571.53;5095811;28;20024;-76
2023/05/19 08:03:03;;;;;;;20.40;14.27;;;;;;;-140.66;100.00;55571.53;5096841;28;20039;-74
2023/05/19 08:05:49;;;;;;;23.45;14.88;;;;;;;-140.66;100.00;55571.53;5107316;28;20082;-75
2023/05/19 08:08:34;;;;;;;22.27;14.82;;;;;;;-140.66;100.00;55571.53;5084189;28;20368;-76
2023/05/19 08:11:20;;;;;;;23.23;14.90;;;;;;;-140.66;100.00;55571.53;5080543;28;20053;-76
2023/05/19 08:14:06;;;;;;;24.20;15.10;;;;;;;-140.66;100.00;55571.53;5093180;28;20024;-76
2023/05/19 08:16:52;;;;;;;19.50;14.65;;;;;;;-140.66;100.00;55571.53;5095826;28;20423;-76
2023/05/19 08:19:40;;;;;;;20.33;14.27;;;;;;;-140.66;100.00;55571.53;5094788;28;20023;-77
2023/05/19 08:22:26;;;;;;;24.55;14.18;;;;;;;-140.66;100.00;55571.53;5095263;28;20066;-76
2023/05/19 08:25:12;;;;;;;18.20;14.48;;;;;;;-140.66;100.00;55571.53;5094395;28;20047;-75
2023/05/19 08:27:58;;;;;;;20.13;14.07;;;;;;;-140.66;100.00;55571.53;5093995;28;20080;-76
2023/05/19 08:30:44;;;;;;;22.63;14.07;;;;;;;-140.66;100.00;55571.53;5094370;28;20467;-76
2023/05/19 08:33:29;;;;;;;22.27;14.27;;;;;;;-140.66;100.00;55571.53;5080988;28;20574;-76
2023/05/19 08:36:15;;;;;;;26.80;13.32;;;;;;;-140.66;100.00;55571.53;5080229;28;20024;-76
2023/05/19 08:39:02;;;;;;;18.92;13.80;;;;;;;-140.66;100.00;55571.53;5080530;28;20364;-77
2023/05/19 08:41:47;;;;;;;25.73;13.90;;;;;;;-140.66;100.00;55571.53;5093193;28;20031;-76
2023/05/19 08:44:33;;;;;;;19.27;13.73;;;;;;;-140.66;100.00;55571.53;5094330;28;20344;-77
2023/05/19 08:47:19;;;;;;;19.70;14.23;;;;;;;-140.66;100.00;55571.53;5080391;28;20020;-76
2023/05/19 08:50:06;;;;;;;24.00;13.73;;;;;;;-140.66;100.00;55571.53;5093104;28;20035;-76
2023/05/19 08:53:25;;;;;;;18.90;13.15;;;;;;;-140.66;100.00;55571.53;5093413;28;20035;-77
2023/05/19 08:56:20;;;;;;;24.15;13.27;;;;;;;-140.66;100.00;55571.53;5056030;28;20105;-76
2023/05/19 08:59:07;;;;;;;19.83;12.82;;;;;;;-140.66;100.00;55571.53;5080290;28;20055;-76
2023/05/19 09:01:54;;;;;;;21.20;12.50;;;;;;;-140.66;100.00;55571.53;5092683;28;20348;-76
2023/05/19 09:04:40;;;;;;;22.42;13.45;;;;;;;-140.66;100.00;55571.53;5092916;28;20035;-75
2023/05/19 09:07:28;;;;;;;18.77;12.45;;;;;;;-140.66;100.00;55571.53;5092250;28;20345;-76
2023/05/19 09:10:15;;;;;;;22.33;12.48;;;;;;;-140.66;100.00;55571.53;5079304;28;20021;-77
2023/05/19 09:13:00;;;;;;;23.33;12.32;;;;;;;-140.66;100.00;55571.53;5096210;28;20372;-76
2023/05/19 09:15:49;;;;;;;20.17;12.43;;;;;;;-140.66;100.00;55571.53;5096320;28;20047;-76
2023/05/19 09:18:37;;;;;;;18.90;12.52;;;;;;;-140.66;100.00;55571.53;5097732;28;20030;-76
2023/05/19 09:21:30;;;;;;;16.05;11.82;;;;;;;-140.66;100.00;55571.53;5097844;28;20047;-77
2023/05/19 09:24:16;;;;;;;17.40;12.50;;;;;;;-140.66;100.00;55571.53;5097512;28;20036;-75
2023/05/19 09:27:02;;;;;;;16.00;11.65;;;;;;;-140.66;100.00;55571.53;5097976;28;20165;-76
2023/05/19 09:29:49;;;;;;;18.48;12.70;;;;;;;-140.66;100.00;55571.53;5098035;28;20027;-76
2023/05/19 09:32:35;;;;;;;15.45;11.50;;;;;;;-140.66;100.00;55571.53;5096926;28;20460;-76
2023/05/19 09:35:21;;;;;;;15.98;12.38;;;;;;;-140.66;100.00;55571.53;5097176;28;20118;-76
2023/05/19 09:38:06;;;;;;;22.52;12.50;;;;;;;-140.66;100.00;55571.53;5097374;28;20051;-77
2023/05/19 09:40:56;;;;;;;23.30;12.43;;;;;;;-140.66;100.00;55571.53;5082643;28;20368;-76
2023/05/19 09:43:41;;;;;;;16.92;12.50;;;;;;;-140.66;100.00;55571.53;5083604;28;20044;-76
2023/05/19 09:46:28;;;;;;;18.15;11.48;;;;;;;-140.66;100.00;55571.53;5096676;28;20024;-75
2023/05/19 09:49:28;;;;;;;19.20;12.38;;;;;;;-140.66;100.00;55571.53;5095839;28;20060;-76
2023/05/19 09:52:17;;;;;;;21.40;12.15;;;;;;;-140.66;100.00;55571.53;5097863;28;20465;-76
2023/05/19 09:55:05;;;;;;;19.25;12.57;;;;;;;-140.66;100.00;55571.53;5081262;28;20036;-76
2023/05/19 09:57:55;;;;;;;20.35;11.77;;;;;;;-140.66;100.00;55571.53;5082912;28;20024;-76
2023/05/19 10:00:41;;;;;;;22.80;11.52;;;;;;;-140.66;100.00;55571.53;5082381;28;20024;-76
2023/05/19 10:03:27;;;;;;;15.07;11.52;;;;;;;-140.66;100.00;55571.53;5097331;28;20334;-77
2023/05/19 10:06:14;;;;;;;21.13;11.27;;;;;;;-140.66;100.00;55571.53;5096582;28;20020;-76
2023/05/19 10:09:01;;;;;;;19.33;12.50;;;;;;;-140.66;100.00;55571.53;5095390;28;20028;-75
2023/05/19 10:11:47;;;;;;;23.52;13.05;;;;;;;-140.66;100.00;55571.53;5081874;28;20032;-75
2023/05/19 10:14:33;;;;;;;20.17;11.77;;;;;;;-140.66;100.00;55571.53;5081505;28;20034;-76
2023/05/19 10:17:19;;;;;;;19.67;12.30;;;;;;;-140.66;100.00;55571.53;5096945;28;20020;-76
2023/05/19 10:20:17;;;;;;;18.38;12.02;;;;;;;-140.66;100.00;55571.53;5081438;28;20047;-76
2023/05/19 10:23:04;;;;;;;17.08;11.73;;;;;;;-140.66;100.00;55571.53;5099245;28;20086;-77
2023/05/19 10:25:53;;;;;;;19.08;12.20;;;;;;;-140.66;100.00;55571.53;5104119;28;20111;-78
2023/05/19 10:28:41;;;;;;;21.55;12.80;;;;;;;-140.66;100.00;55571.53;5099153;28;20044;-76
2023/05/19 10:31:28;;;;;;;20.27;12.15;;;;;;;-140.66;100.00;55571.53;5097135;28;20105;-75
2023/05/19 10:34:29;;;;;;;17.60;11.25;;;;;;;-140.66;100.00;55571.53;5095413;28;20042;-76
2023/05/19 10:37:27;;;;;;;21.25;13.07;;;;;;;-140.66;100.00;55571.53;5096590;28;20020;-76
2023/05/19 10:40:38;;;;;;;13.75;11.65;;;;;;;-140.66;100.00;55571.53;5080443;28;20074;-76
2023/05/19 10:43:43;;;;;;;16.98;11.30;;;;;;;-140.66;100.00;55571.53;5085749;28;20039;-76
2023/05/19 10:46:31;;;;;;;17.83;11.40;;;;;;;-140.66;100.00;55571.53;5087935;28;20032;-77
2023/05/19 10:49:23;;;;;;;19.73;11.05;;;;;;;-140.66;100.00;55571.53;5096528;28;20360;-76
2023/05/19 10:52:20;;;;;;;16.50;10.93;;;;;;;-140.66;100.00;55571.53;5097716;28;20024;-77
2023/05/19 10:55:08;;;;;;;19.08;11.50;;;;;;;-140.66;100.00;55571.53;5095534;28;20086;-76
2023/05/19 10:57:59;;;;;;;18.77;11.70;;;;;;;-140.66;100.00;55571.53;5096733;28;20043;-76
2023/05/19 11:00:44;;;;;;;16.90;11.68;;;;;;;-140.66;100.00;55571.53;5100152;28;20044;-75
2023/05/19 11:03:48;;;;;;;21.65;11.25;;;;;;;-140.66;100.00;55571.53;5099935;28;20103;-74
2023/05/19 11:06:37;;;;;;;17.10;12.38;;;;;;;-140.66;100.00;55571.53;5081231;28;20435;-76
2023/05/19 11:09:24;;;;;;;17.83;11.73;;;;;;;-140.66;100.00;55571.53;5081230;28;20427;-76
2023/05/19 11:12:10;;;;;;;17.90;12.07;;;;;;;-140.66;100.00;55571.53;5094288;28;20089;-77
2023/05/19 11:14:58;;;;;;;17.60;11.85;;;;;;;-140.66;100.00;55571.53;5095185;28;20339;-76
2023/05/19 11:17:47;;;;;;;21.75;11.75;;;;;;;-140.66;100.00;55571.53;5095336;28;20039;-75
2023/05/19 11:20:37;;;;;;;22.70;11.75;;;;;;;-140.66;100.00;55571.53;5081318;28;20020;-76
2023/05/19 11:23:24;;;;;;;14.48;10.07;;;;;;;-140.66;100.00;55571.53;5095193;28;20129;-77
2023/05/19 11:26:11;;;;;;;17.98;10.55;;;;;;;-140.66;100.00;55571.53;5093623;28;20406;-76
2023/05/19 11:28:57;;;;;;;18.48;10.63;;;;;;;-140.66;100.00;55571.53;5094648;28;20141;-76
2023/05/19 11:31:43;;;;;;;16.15;10.02;;;;;;;-140.66;100.00;55571.53;5094613;28;20176;-75
2023/05/19 11:34:29;;;;;;;12.35;9.63;;;;;;;-140.66;100.00;55571.53;5093481;28;20055;-75
2023/05/19 11:37:15;;;;;;;35.72;12.15;;;;;;;-140.66;100.00;55571.53;5095658;28;20023;-75
2023/05/19 11:40:06;;;;;;;17.77;10.73;;;;;;;-140.66;100.00;55571.53;5093845;28;20024;-76
2023/05/19 11:42:52;;;;;;;19.00;10.25;;;;;;;-140.66;100.00;55571.53;5073140;28;20031;-76
2023/05/19 11:45:40;;;;;;;14.77;9.32;;;;;;;-140.66;100.00;55571.53;5079196;28;20038;-76
2023/05/19 11:48:27;;;;;;;11.80;9.50;;;;;;;-140.66;100.00;55571.53;5093070;28;20117;-76
2023/05/19 11:51:13;;;;;;;15.25;9.48;;;;;;;-140.66;100.00;55571.53;5093501;28;20043;-76
2023/05/19 11:53:59;;;;;;;11.35;8.32;;;;;;;-140.66;100.00;55571.53;5080278;28;20028;-76
2023/05/19 11:56:44;;;;;;;15.40;8.70;;;;;;;-140.66;100.00;55571.53;5080762;28;20436;-74
2023/05/19 11:59:31;;;;;;;18.45;8.68;;;;;;;-140.66;100.00;55571.53;5096114;28;20466;-76
2023/05/19 12:02:18;;;;;;;16.33;8.57;;;;;;;-140.66;100.00;55571.53;5095601;28;20020;-75
2023/05/19 12:05:04;;;;;;;12.20;8.05;;;;;;;-140.66;100.00;55571.53;5081227;28;20028;-77
2023/05/19 12:07:51;;;;;;;17.13;8.05;;;;;;;-140.66;100.00;55571.53;5093002;28;20540;-76
2023/05/19 12:10:37;;;;;;;14.93;7.95;;;;;;;-140.66;100.00;55571.53;5079240;28;20032;-77
2023/05/19 12:13:24;;;;;;;10.73;7.75;;;;;;;-140.66;100.00;55571.53;5079574;28;20028;-76
2023/05/19 12:16:10;;;;;;;11.90;7.85;;;;;;;-140.66;100.00;55571.53;5092951;28;20404;-76
2023/05/19 12:18:56;;;;;;;13.35;8.10;;;;;;;-140.66;100.00;55571.53;5094767;28;20350;-76
2023/05/19 12:21:42;;;;;;;15.30;8.45;;;;;;;-140.66;100.00;55571.53;5095185;28;20088;-77
2023/05/19 12:24:28;;;;;;;14.25;8.60;;;;;;;-140.66;100.00;55571.53;5094379;28;20035;-77
2023/05/19 12:27:23;;;;;;;13.93;8.13;;;;;;;-140.66;100.00;55571.53;5092436;28;20118;-75